Terminal Aerodrome Forecast
Issued by NWS Cleveland, OH

Home | Current Version | Previous Version | Graphics & Text | Print | Product List | Glossary On
Versions: 1 2 3 4 5 6 7 8 9 10 11 12 13 14 15 16 17 18 19 20 21 22 23 24 25 26 27 28
000
FTUS41 KCLE 132000 AAA
TAFCLE
TAF AMD
KCLE 132049Z 1321/1424 21018G26KT P6SM BKN050
     FM140400 20014G22KT P6SM SCT050 BKN200 WS016/21040KT
     FM140900 19022G30KT P6SM VCSH BKN050
     FM141600 20022G32KT 5SM -SHRA VCTS BKN030CB OVC080
     FM142100 26015KT 4SM -SHRA OVC025=

USA.gov is the U.S. government's official web portal to all federal, state and local government web resources and services.